createdAt,value
2022-10-08T00:04:11.525Z,11.51
2022-10-08T00:09:13.192Z,11.60
2022-10-08T00:14:15.294Z,11.66
2022-10-08T00:19:16.807Z,11.75
2022-10-08T00:24:21.227Z,11.70
2022-10-08T00:29:22.971Z,11.68
2022-10-08T00:34:24.547Z,11.69
2022-10-08T00:39:27.153Z,11.80
2022-10-08T00:44:47.093Z,12.01
2022-10-08T00:49:51.456Z,12.15
2022-10-08T00:54:52.991Z,12.29
2022-10-08T00:59:54.644Z,12.35
2022-10-08T01:04:56.503Z,12.41
2022-10-08T01:10:23.942Z,12.47
2022-10-08T01:15:32.264Z,12.46
2022-10-08T01:20:37.213Z,12.47
2022-10-08T01:26:06.710Z,12.56
2022-10-08T01:31:15.323Z,12.52
2022-10-08T01:36:19.814Z,12.50
2022-10-08T01:41:25.820Z,12.43
2022-10-08T01:46:30.230Z,12.45
2022-10-08T01:51:36.823Z,12.38
2022-10-08T01:56:41.602Z,12.40
2022-10-08T02:02:01.465Z,12.45
2022-10-08T02:07:15.201Z,12.38
2022-10-08T02:12:17.502Z,12.21
2022-10-08T02:17:35.814Z,12.09
2022-10-08T02:22:43.296Z,12.06
2022-10-08T02:28:00.079Z,12.00
2022-10-08T02:33:10.192Z,12.00
2022-10-08T02:38:16.881Z,11.95
2022-10-08T02:43:26.502Z,11.88
2022-10-08T02:48:31.418Z,11.82
2022-10-08T02:53:38.011Z,11.83
2022-10-08T02:58:39.760Z,11.74
2022-10-08T03:03:47.253Z,11.70
2022-10-08T03:08:50.615Z,11.73
2022-10-08T03:13:58.437Z,11.66
2022-10-08T03:19:03.046Z,11.63
2022-10-08T03:24:07.997Z,11.45
2022-10-08T03:29:10.465Z,11.37
2022-10-08T03:34:11.967Z,11.34
2022-10-08T03:39:13.493Z,11.36
2022-10-08T03:44:15.010Z,11.29
2022-10-08T03:49:16.510Z,11.32
2022-10-08T03:54:18.022Z,11.33
2022-10-08T03:59:19.665Z,11.18
2022-10-08T04:04:25.339Z,11.08
2022-10-08T04:09:27.358Z,11.05
2022-10-08T04:14:28.829Z,11.00
2022-10-08T04:19:30.432Z,10.92
2022-10-08T04:24:31.988Z,10.94
2022-10-08T04:29:33.461Z,11.03
2022-10-08T04:34:34.921Z,11.11
2022-10-08T04:39:36.450Z,11.17
2022-10-08T04:44:37.956Z,11.19
2022-10-08T04:49:39.472Z,11.26
2022-10-08T04:54:40.941Z,11.26
2022-10-08T05:00:05.727Z,11.30
2022-10-08T05:05:04.306Z,11.25
2022-10-08T05:10:06.307Z,11.29
2022-10-08T05:15:08.433Z,11.26
2022-10-08T05:20:10.062Z,11.31
2022-10-08T05:25:11.620Z,11.28
2022-10-08T05:30:13.235Z,11.30
2022-10-08T05:35:14.870Z,11.29
2022-10-08T05:40:19.760Z,11.25
2022-10-08T05:45:21.282Z,11.31
2022-10-08T05:50:22.787Z,11.26
2022-10-08T05:55:24.259Z,11.13
2022-10-08T06:00:25.765Z,11.12
2022-10-08T06:05:27.284Z,11.04
2022-10-08T06:10:30.222Z,11.02
2022-10-08T06:15:31.696Z,11.00
2022-10-08T06:20:36.605Z,10.94
2022-10-08T06:25:38.558Z,10.90
2022-10-08T06:30:43.587Z,10.99
2022-10-08T06:35:45.069Z,11.11
2022-10-08T06:40:46.605Z,11.54
2022-10-08T06:45:48.169Z,11.34
2022-10-08T06:50:58.640Z,11.10
2022-10-08T06:56:03.873Z,11.11
2022-10-08T07:07:46.390Z,11.57
2022-10-08T07:12:48.488Z,12.14
2022-10-08T07:17:50.327Z,12.50
2022-10-08T07:22:51.827Z,12.60
2022-10-08T07:27:53.346Z,12.93
2022-10-08T07:32:54.803Z,12.75
2022-10-08T07:37:56.386Z,13.32
2022-10-08T07:42:57.840Z,13.85
2022-10-08T07:47:59.610Z,13.74
2022-10-08T07:53:01.236Z,14.06
2022-10-08T07:58:03.418Z,14.44
2022-10-08T08:03:05.124Z,14.28
2022-10-08T08:08:11.983Z,14.25
2022-10-08T08:13:13.529Z,14.89
2022-10-08T08:18:15.184Z,14.67
2022-10-08T08:23:16.642Z,14.54
2022-10-08T08:28:18.179Z,15.08
2022-10-08T08:33:19.704Z,15.57
2022-10-08T08:38:21.237Z,15.28
2022-10-08T08:43:23.548Z,14.82
2022-10-08T08:48:28.868Z,15.27
2022-10-08T08:53:31.508Z,15.77
2022-10-08T08:58:58.513Z,15.58
2022-10-08T09:04:09.481Z,15.29
2022-10-08T09:09:25.958Z,15.46
2022-10-08T09:14:45.961Z,14.74
2022-10-08T09:19:49.184Z,15.34
2022-10-08T09:24:56.997Z,15.85
2022-10-08T09:29:58.519Z,14.42
2022-10-08T09:35:07.701Z,14.47
2022-10-08T09:40:11.958Z,15.20
2022-10-08T09:45:34.215Z,15.02
2022-10-08T09:50:36.739Z,15.23
2022-10-08T09:55:38.282Z,16.46
2022-10-08T10:00:39.991Z,15.45
2022-10-08T10:05:41.562Z,15.70
2022-10-08T10:10:48.659Z,14.59
2022-10-08T10:16:03.362Z,14.64
2022-10-08T10:21:15.202Z,15.19
2022-10-08T10:26:21.902Z,16.44
2022-10-08T10:31:46.592Z,15.97
2022-10-08T10:36:52.567Z,16.20
2022-10-08T10:42:15.234Z,16.79
2022-10-08T10:47:21.388Z,16.54
2022-10-08T10:52:41.666Z,17.01
2022-10-08T10:57:43.121Z,16.56
2022-10-08T11:03:15.417Z,15.62
2022-10-08T11:08:34.649Z,17.03
2022-10-08T11:13:55.080Z,16.96
2022-10-08T11:20:03.920Z,17.63
2022-10-08T11:26:11.094Z,17.41
2022-10-08T11:31:23.762Z,16.87
2022-10-08T11:36:53.364Z,16.43
2022-10-08T11:42:14.487Z,17.02
2022-10-08T11:54:23.394Z,17.22
2022-10-08T12:00:18.098Z,18.01
2022-10-08T12:05:22.570Z,18.22
2022-10-08T12:10:31.566Z,17.83
2022-10-08T12:15:40.374Z,17.96
2022-10-08T12:20:43.464Z,16.85
2022-10-08T12:25:44.897Z,16.94
2022-10-08T12:30:48.756Z,15.76
2022-10-08T12:36:12.491Z,15.52
2022-10-08T12:41:16.919Z,15.47
2022-10-08T12:46:56.473Z,16.96
2022-10-08T12:52:07.385Z,16.75
2022-10-08T12:57:11.503Z,16.87
2022-10-08T13:03:12.412Z,17.27
2022-10-08T13:08:30.882Z,16.91
2022-10-08T13:13:38.170Z,17.15
2022-10-08T13:18:42.680Z,17.31
2022-10-08T13:23:44.245Z,17.76
2022-10-08T13:28:59.906Z,17.31
2022-10-08T13:34:03.826Z,16.43
2022-10-08T13:39:05.755Z,17.67
2022-10-08T13:44:09.594Z,17.58
2022-10-08T13:49:23.173Z,16.28
2022-10-08T13:54:27.904Z,16.58
2022-10-08T13:59:30.833Z,16.68
2022-10-08T14:04:32.824Z,16.67
2022-10-08T14:09:34.351Z,16.42
2022-10-08T14:14:35.849Z,16.43
2022-10-08T14:19:37.407Z,16.87
2022-10-08T14:24:39.288Z,16.49
2022-10-08T14:29:40.753Z,16.39
2022-10-08T14:34:42.370Z,16.31
2022-10-08T14:39:43.943Z,16.32
2022-10-08T14:44:45.904Z,16.15
2022-10-08T14:49:47.609Z,15.18
2022-10-08T14:54:49.126Z,15.06
2022-10-08T14:59:50.907Z,14.91
2022-10-08T15:04:54.727Z,14.84
2022-10-08T15:09:56.355Z,14.53
2022-10-08T15:14:57.906Z,14.41
2022-10-08T15:19:59.622Z,14.39
2022-10-08T15:25:01.130Z,14.40
2022-10-08T15:30:02.946Z,14.08
2022-10-08T15:35:04.845Z,14.12
2022-10-08T15:40:06.975Z,14.75
2022-10-08T15:45:08.777Z,14.66
2022-10-08T15:50:10.296Z,14.40
2022-10-08T15:55:11.809Z,14.21
2022-10-08T16:00:13.601Z,14.08
2022-10-08T16:05:15.413Z,14.01
2022-10-08T16:10:17.042Z,14.03
2022-10-08T16:15:18.518Z,14.04
2022-10-08T16:20:20.185Z,13.89
2022-10-08T16:25:21.648Z,13.46
2022-10-08T16:30:23.255Z,13.39
2022-10-08T16:35:27.623Z,13.23
2022-10-08T16:40:29.308Z,12.89
2022-10-08T16:45:35.482Z,12.79
2022-10-08T16:50:41.894Z,12.56
2022-10-08T16:55:44.438Z,12.61
2022-10-08T17:00:45.955Z,12.42
2022-10-08T17:05:47.589Z,12.23
2022-10-08T17:10:49.995Z,12.05
2022-10-08T17:15:59.546Z,11.74
2022-10-08T17:21:02.371Z,11.33
2022-10-08T17:26:06.958Z,11.35
2022-10-08T17:31:10.809Z,10.98
2022-10-08T17:36:18.241Z,10.60
2022-10-08T17:41:22.570Z,10.37
2022-10-08T17:46:26.815Z,10.12
2022-10-08T17:51:30.082Z,10.09
2022-10-08T17:56:31.827Z,10.08
2022-10-08T18:01:40.263Z,9.88
2022-10-08T18:06:47.519Z,9.64
2022-10-08T18:11:52.171Z,9.42
2022-10-08T18:16:53.707Z,9.50
2022-10-08T18:21:55.224Z,9.45
2022-10-08T18:26:58.994Z,9.59
2022-10-08T18:32:00.503Z,9.21
2022-10-08T18:37:01.961Z,9.03
2022-10-08T18:42:03.578Z,9.11
2022-10-08T18:47:05.643Z,9.01
2022-10-08T18:52:08.100Z,8.96
2022-10-08T18:57:09.672Z,8.84
2022-10-08T19:02:11.299Z,8.96
2022-10-08T19:07:14.080Z,8.95
2022-10-08T19:12:15.953Z,8.89
2022-10-08T19:17:17.476Z,8.87
2022-10-08T19:22:24.634Z,8.81
2022-10-08T19:27:29.770Z,8.75
2022-10-08T19:32:31.484Z,8.38
2022-10-08T19:37:36.507Z,8.42
2022-10-08T19:42:47.117Z,8.32
2022-10-08T19:47:49.591Z,8.31
2022-10-08T19:52:52.056Z,8.25
2022-10-08T19:57:55.905Z,8.07
2022-10-08T20:02:57.410Z,8.08
2022-10-08T20:08:01.699Z,7.68
2022-10-08T20:13:03.283Z,7.74
2022-10-08T20:18:05.088Z,7.86
2022-10-08T20:23:09.952Z,7.87
2022-10-08T20:28:14.325Z,7.70
2022-10-08T20:33:18.899Z,7.61
2022-10-08T20:38:26.002Z,7.76
2022-10-08T20:43:38.066Z,7.57
2022-10-08T20:48:51.454Z,7.34
2022-10-08T20:53:55.296Z,7.20
2022-10-08T20:58:57.644Z,7.18
2022-10-08T21:04:00.606Z,7.08
2022-10-08T21:09:02.301Z,7.16
2022-10-08T21:14:04.365Z,7.16
2022-10-08T21:19:11.891Z,6.85
2022-10-08T21:24:17.117Z,6.62
2022-10-08T21:29:18.811Z,6.79
2022-10-08T21:34:23.143Z,6.87
2022-10-08T21:39:24.996Z,6.85
2022-10-08T21:44:26.591Z,6.58
2022-10-08T21:49:30.547Z,6.77
2022-10-08T21:54:32.164Z,6.25
2022-10-08T21:59:33.648Z,6.19
2022-10-08T22:04:35.219Z,5.85
2022-10-08T22:09:36.906Z,6.30
2022-10-08T22:14:38.504Z,5.67
2022-10-08T22:19:40.022Z,5.85
2022-10-08T22:24:41.566Z,5.56
2022-10-08T22:29:43.138Z,5.64
2022-10-08T22:34:44.634Z,5.71
2022-10-08T22:39:46.142Z,5.42
2022-10-08T22:44:47.637Z,5.72
2022-10-08T22:49:49.147Z,5.60
2022-10-08T22:54:51.111Z,5.52
2022-10-08T22:59:52.613Z,5.53
2022-10-08T23:04:54.074Z,5.43
2022-10-08T23:09:55.530Z,5.23
2022-10-08T23:14:56.984Z,5.39
2022-10-08T23:19:58.460Z,5.29
2022-10-08T23:25:00.055Z,5.24
2022-10-08T23:30:01.806Z,5.29
2022-10-08T23:35:03.374Z,5.26
2022-10-08T23:40:05.289Z,5.18
2022-10-08T23:45:07.363Z,5.04
2022-10-08T23:50:09.209Z,4.97
2022-10-08T23:55:17.550Z,5.01
